CheckWX is a tool to help pilots better visualize weather data.  It is not intended as a substitute for an official pre-flight weather briefing.

01:05:29 UTC

FNMO METAR
Namibe Airport
Namibe, Angola
Current

11 hours ago

FNMO 231400Z 25011KT 9999 FEW011 FEW026CB 31/21 Q1007
Observed
Feb-23 @ 14:00 UTC
Wind
  • 250° at 11 KTS
Visibility
10,000+ meters
Flight Rules
VFR
Cloud Levels
  • Few at 1,100' AGL
  • Few at 2,600' AGL
Temperature
31°C / 88°F
Dewpoint
21°C / 70°F
Humidity
55%
Altimeter
29.73" Hg
Pressure
1006.92 hPa
Previous

12 hours ago

FNMO 231300Z 26011KT 9999 FEW011 32/22 Q1009
Observed
Feb-23 @ 13:00 UTC
Wind
  • 260° at 11 KTS
Visibility
10,000+ meters
Flight Rules
VFR
Cloud Levels
  • Few at 1,100' AGL
Temperature
32°C / 90°F
Dewpoint
22°C / 72°F
Humidity
55%
Altimeter
29.79" Hg
Pressure
1008.92 hPa
Previous

14 hours ago

FNMO 231100Z 24010KT CAVOK 32/22 Q1010
Observed
Feb-23 @ 11:00 UTC
Wind
  • 240° at 10 KTS
Visibility
10,000+ meters
Flight Rules
VFR
Cloud Levels
  • Clear skies
Temperature
32°C / 90°F
Dewpoint
22°C / 72°F
Humidity
55%
Altimeter
29.82" Hg
Pressure
1009.92 hPa